Time;durP1;ratioP1;P1;durP2;ratioP2;P2;SDS_P1;SDS_P2;PMS_P1;PMS_P2;Temp;Humidity;BMP_temperature;BMP_pressure;BME280_temperature;BME280_humidity;BME280_pressure;Samples;Min_cycle;Max_cycle;Signal;HPM_P1;HPM_P2
2022/04/12 00:00:40;;;;;;;34.97;14.70;;;4.90;99.90;;;;;;5061195;28;20048;-77
2022/04/12 00:03:07;;;;;;;29.63;13.00;;;4.90;99.90;;;;;;5061964;28;20021;-76
2022/04/12 00:05:34;;;;;;;33.58;13.35;;;4.80;99.90;;;;;;5062576;28;20036;-78
2022/04/12 00:08:00;;;;;;;33.72;14.60;;;4.80;99.90;;;;;;5060904;28;20079;-75
2022/04/12 00:10:28;;;;;;;25.00;11.35;;;4.80;99.90;;;;;;5044065;28;20066;-76
2022/04/12 00:12:54;;;;;;;29.55;12.40;;;4.70;99.90;;;;;;5062288;28;20086;-74
2022/04/12 00:15:20;;;;;;;22.35;10.27;;;4.70;99.90;;;;;;5060364;28;20021;-77
2022/04/12 00:20:30;;;;;;;30.55;11.65;;;4.70;99.90;;;;;;5061857;28;20078;-74
2022/04/12 00:22:57;;;;;;;31.95;12.52;;;4.70;99.90;;;;;;5063227;28;20020;-77
2022/04/12 00:25:24;;;;;;;38.22;14.23;;;4.70;99.90;;;;;;5064664;28;20021;-75
2022/04/12 00:27:51;;;;;;;31.75;11.15;;;4.60;99.90;;;;;;5047356;28;20059;-74
2022/04/12 00:30:18;;;;;;;26.80;10.50;;;4.60;99.90;;;;;;5066471;28;20052;-77
2022/04/12 00:32:45;;;;;;;27.75;10.60;;;4.60;99.90;;;;;;5064387;28;20021;-77
2022/04/12 00:35:11;;;;;;;30.05;12.00;;;4.60;99.90;;;;;;5047205;28;20017;-75
2022/04/12 00:37:37;;;;;;;24.23;10.07;;;4.60;99.90;;;;;;5063407;28;20040;-75
2022/04/12 00:40:04;;;;;;;22.33;9.68;;;4.60;99.90;;;;;;5066309;28;20016;-78
2022/04/12 00:42:31;;;;;;;24.13;9.07;;;4.50;99.90;;;;;;5065372;28;20025;-76
2022/04/12 00:44:57;;;;;;;21.60;9.02;;;4.50;99.90;;;;;;5064215;28;20032;-75
2022/04/12 00:47:23;;;;;;;25.92;9.32;;;4.50;99.90;;;;;;5065795;28;20478;-76
2022/04/12 00:49:48;;;;;;;18.88;9.73;;;4.50;99.90;;;;;;5047106;28;20029;-76
2022/04/12 00:52:15;;;;;;;21.58;10.45;;;4.50;99.90;;;;;;5063845;28;20115;-75
2022/04/12 00:54:42;;;;;;;24.85;10.35;;;4.50;99.90;;;;;;5065671;28;20025;-75
2022/04/12 00:57:10;;;;;;;32.50;14.35;;;4.40;99.90;;;;;;5046433;28;20112;-76
2022/04/12 00:59:36;;;;;;;57.88;23.17;;;4.40;99.90;;;;;;5063730;28;20049;-76
2022/04/12 01:02:06;;;;;;;56.15;24.42;;;4.40;99.90;;;;;;5063558;28;20352;-75
2022/04/12 01:04:32;;;;;;;64.47;27.50;;;4.30;99.90;;;;;;5064519;28;20029;-75
2022/04/12 01:07:00;;;;;;;63.35;27.17;;;4.30;99.90;;;;;;5065385;28;20060;-77
2022/04/12 01:09:26;;;;;;;56.85;25.95;;;4.30;99.90;;;;;;5063824;28;20403;-75
2022/04/12 01:11:57;;;;;;;55.97;24.40;;;4.20;99.90;;;;;;5064045;28;20066;-75
2022/04/12 01:14:24;;;;;;;62.03;27.10;;;4.30;99.90;;;;;;5063725;28;20075;-74
2022/04/12 01:16:50;;;;;;;65.55;29.75;;;4.30;99.90;;;;;;5064463;28;20029;-76
2022/04/12 01:19:16;;;;;;;72.40;32.60;;;4.20;99.90;;;;;;5064984;28;20467;-75
2022/04/12 01:22:00;;;;;;;78.05;32.78;;;4.20;99.90;;;;;;5063179;28;20079;-76
2022/04/12 01:24:28;;;;;;;78.05;32.65;;;4.20;99.90;;;;;;5064096;28;20025;-76
2022/04/12 01:26:53;;;;;;;72.03;31.60;;;4.20;99.90;;;;;;5063214;28;20112;-77
2022/04/12 01:29:19;;;;;;;67.25;29.77;;;4.10;99.90;;;;;;5047345;28;20107;-76
2022/04/12 01:31:45;;;;;;;77.30;30.52;;;4.10;99.90;;;;;;5063461;28;20040;-76
2022/04/12 01:34:11;;;;;;;70.93;28.90;;;4.00;99.90;;;;;;5062989;28;20020;-76
2022/04/12 01:36:37;;;;;;;62.67;27.17;;;4.00;99.90;;;;;;5065105;28;20028;-77
2022/04/12 01:39:03;;;;;;;51.00;24.73;;;4.00;99.90;;;;;;5045270;28;20027;-76
2022/04/12 01:41:29;;;;;;;56.78;24.17;;;4.00;99.90;;;;;;5064168;28;20107;-77
2022/04/12 01:43:55;;;;;;;57.53;24.52;;;4.00;99.90;;;;;;5064819;28;20029;-75
2022/04/12 01:46:21;;;;;;;47.67;22.92;;;3.90;99.90;;;;;;5044839;28;20021;-77
2022/04/12 01:48:48;;;;;;;48.70;20.60;;;3.90;99.90;;;;;;5064302;28;20089;-76
2022/04/12 01:51:14;;;;;;;45.85;22.13;;;3.80;99.90;;;;;;5064520;28;20415;-74
2022/04/12 01:53:40;;;;;;;52.03;23.63;;;3.80;99.90;;;;;;5062547;28;20013;-75
2022/04/12 01:56:06;;;;;;;55.15;22.88;;;3.80;99.90;;;;;;5064489;28;20032;-76
2022/04/12 01:58:32;;;;;;;54.72;25.38;;;3.80;99.90;;;;;;5064013;28;20399;-74
2022/04/12 02:00:59;;;;;;;66.72;27.98;;;3.70;99.90;;;;;;5044474;28;20024;-77
2022/04/12 02:03:25;;;;;;;83.70;32.03;;;3.70;99.90;;;;;;5064236;28;20021;-76
2022/04/12 02:05:54;;;;;;;77.07;31.02;;;3.70;99.90;;;;;;5063445;28;20380;-77
2022/04/12 02:08:21;;;;;;;56.90;24.80;;;3.70;99.90;;;;;;5054421;28;20388;-76
2022/04/12 02:10:47;;;;;;;48.40;21.15;;;3.60;99.90;;;;;;5054256;28;20028;-75
2022/04/12 02:13:13;;;;;;;48.63;19.67;;;3.70;99.90;;;;;;5036461;28;20029;-75
2022/04/12 02:15:38;;;;;;;38.47;17.92;;;3.60;99.90;;;;;;5054129;28;20029;-76
2022/04/12 02:18:04;;;;;;;38.10;18.40;;;3.60;99.90;;;;;;5036537;28;20171;-76
2022/04/12 02:20:30;;;;;;;39.65;17.23;;;3.60;99.90;;;;;;5054538;28;20032;-75
2022/04/12 02:22:56;;;;;;;46.03;17.83;;;3.60;99.90;;;;;;5053957;28;20031;-76
2022/04/12 02:25:22;;;;;;;42.22;17.25;;;3.50;99.90;;;;;;5054497;28;20374;-76
2022/04/12 02:27:48;;;;;;;40.40;19.75;;;3.50;99.90;;;;;;5054410;28;20029;-76
2022/04/12 02:30:13;;;;;;;43.03;18.98;;;3.50;99.90;;;;;;5054534;28;20035;-76
2022/04/12 02:32:40;;;;;;;42.97;18.67;;;3.40;99.90;;;;;;5054102;28;20029;-74
2022/04/12 02:35:06;;;;;;;38.53;19.52;;;3.50;99.90;;;;;;5054090;28;20037;-75
2022/04/12 02:37:32;;;;;;;39.90;17.20;;;3.40;99.90;;;;;;5053671;28;20040;-75
2022/04/12 02:39:58;;;;;;;44.90;18.73;;;3.40;99.90;;;;;;5053419;28;20025;-74
2022/04/12 02:42:23;;;;;;;46.92;18.13;;;3.40;99.90;;;;;;5053455;28;20063;-73
2022/04/12 02:44:49;;;;;;;40.92;18.60;;;3.40;99.90;;;;;;5035500;28;20095;-75
2022/04/12 02:47:15;;;;;;;40.80;17.17;;;3.40;99.90;;;;;;5052885;28;20035;-73
2022/04/12 02:49:40;;;;;;;41.67;16.00;;;3.30;99.90;;;;;;5052955;28;20035;-76
2022/04/12 02:52:08;;;;;;;43.22;18.63;;;3.40;99.90;;;;;;5053678;28;20029;-74
2022/04/12 02:54:34;;;;;;;39.30;16.17;;;3.30;99.90;;;;;;5054072;28;20498;-76
2022/04/12 02:57:00;;;;;;;35.80;16.23;;;3.30;99.90;;;;;;5053785;28;20040;-75
2022/04/12 02:59:26;;;;;;;34.67;16.83;;;3.30;99.90;;;;;;5053278;28;20060;-76
2022/04/12 03:01:52;;;;;;;37.08;15.98;;;3.30;99.90;;;;;;5053877;28;20032;-74
2022/04/12 03:04:17;;;;;;;33.53;14.75;;;3.40;99.90;;;;;;5053718;28;20029;-77
2022/04/12 03:06:43;;;;;;;37.30;15.23;;;3.30;99.90;;;;;;5053873;28;20059;-75
2022/04/12 03:09:09;;;;;;;38.65;15.80;;;3.30;99.90;;;;;;5035303;28;20037;-75
2022/04/12 03:11:35;;;;;;;37.75;16.27;;;3.30;99.90;;;;;;5053183;28;20071;-76
2022/04/12 03:14:02;;;;;;;38.00;17.05;;;3.30;99.90;;;;;;5053256;28;20025;-76
2022/04/12 03:16:28;;;;;;;35.25;15.95;;;3.30;99.90;;;;;;5053724;28;20020;-74
2022/04/12 03:18:54;;;;;;;42.17;16.75;;;3.30;99.90;;;;;;5052521;28;20124;-76
2022/04/12 03:21:20;;;;;;;43.83;17.65;;;3.20;99.90;;;;;;5052691;28;20035;-76
2022/04/12 03:23:45;;;;;;;43.47;16.08;;;3.30;99.90;;;;;;5053140;28;20033;-77
2022/04/12 03:26:11;;;;;;;47.08;16.55;;;3.30;99.90;;;;;;5052725;28;20025;-76
2022/04/12 03:28:37;;;;;;;42.25;17.92;;;3.30;99.90;;;;;;5052735;28;20031;-76
2022/04/12 03:31:03;;;;;;;46.65;18.33;;;3.30;99.90;;;;;;5052195;28;20029;-76
2022/04/12 03:33:28;;;;;;;42.55;18.63;;;3.20;99.90;;;;;;5052474;28;20478;-76
2022/04/12 03:35:54;;;;;;;43.00;16.67;;;3.20;99.90;;;;;;5052964;28;20025;-74
2022/04/12 03:38:20;;;;;;;38.00;16.63;;;3.20;99.90;;;;;;5053200;28;20086;-74
2022/04/12 03:40:46;;;;;;;44.00;17.38;;;3.20;99.90;;;;;;5035583;28;20036;-78
2022/04/12 03:43:13;;;;;;;38.85;15.45;;;3.20;99.90;;;;;;5053396;28;20487;-74
2022/04/12 03:45:38;;;;;;;40.15;16.92;;;3.20;99.90;;;;;;5053097;28;20033;-75
2022/04/12 03:48:05;;;;;;;39.92;16.98;;;3.20;99.90;;;;;;5053238;28;20040;-76
2022/04/12 03:50:34;;;;;;;50.33;19.35;;;3.20;99.90;;;;;;5035240;28;20025;-76
2022/04/12 03:53:01;;;;;;;38.38;17.02;;;3.20;99.90;;;;;;5035345;28;20035;-75
2022/04/12 03:55:35;;;;;;;35.70;15.93;;;3.10;99.90;;;;;;5053126;28;20017;-77
2022/04/12 03:58:06;;;;;;;44.25;15.25;;;3.10;99.90;;;;;;5056391;28;20045;-74
2022/04/12 04:00:33;;;;;;;44.37;16.90;;;3.00;99.90;;;;;;5059730;28;20036;-75
2022/04/12 04:02:59;;;;;;;40.30;16.75;;;3.10;99.90;;;;;;5057220;28;20083;-76
2022/04/12 04:05:25;;;;;;;58.90;23.58;;;3.10;99.90;;;;;;5057818;28;20483;-76
2022/04/12 04:07:51;;;;;;;57.67;28.77;;;3.10;99.90;;;;;;5058241;28;20434;-76
2022/04/12 04:10:17;;;;;;;54.75;25.25;;;3.10;99.90;;;;;;5057393;28;20452;-75
2022/04/12 04:12:44;;;;;;;47.85;20.30;;;3.00;99.90;;;;;;5057167;28;20028;-75
2022/04/12 04:15:14;;;;;;;39.67;16.50;;;3.10;99.90;;;;;;5076977;28;20467;-76
2022/04/12 04:17:49;;;;;;;38.35;17.67;;;3.00;99.90;;;;;;5059809;28;20053;-75
2022/04/12 04:20:18;;;;;;;47.92;19.85;;;3.00;99.90;;;;;;5039090;28;20529;-77
2022/04/12 04:22:44;;;;;;;43.90;21.33;;;3.10;99.90;;;;;;5072535;28;20028;-74
2022/04/12 04:25:12;;;;;;;56.70;26.25;;;3.10;99.90;;;;;;5076892;28;20577;-75
2022/04/12 04:27:39;;;;;;;51.15;24.73;;;3.10;99.90;;;;;;5062023;28;20041;-77
2022/04/12 04:30:08;;;;;;;58.75;26.88;;;3.10;99.90;;;;;;5038930;28;20025;-77
2022/04/12 04:32:34;;;;;;;61.38;26.30;;;3.10;99.90;;;;;;5068976;28;20033;-76
2022/04/12 04:35:00;;;;;;;53.75;25.70;;;3.10;99.90;;;;;;5058627;28;20493;-74
2022/04/12 04:37:26;;;;;;;55.55;23.05;;;3.20;99.90;;;;;;5059031;28;20071;-75
2022/04/12 04:39:53;;;;;;;58.85;22.65;;;3.20;99.90;;;;;;5076448;28;20100;-74
2022/04/12 04:42:20;;;;;;;51.65;19.77;;;3.30;99.90;;;;;;5076604;28;20052;-76
2022/04/12 04:44:47;;;;;;;52.58;21.75;;;3.40;99.90;;;;;;5076228;28;20391;-74
2022/04/12 04:47:13;;;;;;;66.85;25.25;;;3.50;99.90;;;;;;5076344;28;20031;-76
2022/04/12 04:49:39;;;;;;;78.97;26.48;;;3.60;99.90;;;;;;5076093;28;20029;-75
2022/04/12 04:52:06;;;;;;;68.97;25.45;;;3.70;99.90;;;;;;5063133;28;20391;-76
2022/04/12 04:54:31;;;;;;;66.50;23.83;;;3.80;99.90;;;;;;5056222;28;20021;-77
2022/04/12 04:56:57;;;;;;;59.90;22.35;;;3.90;99.90;;;;;;5056144;28;20086;-75
2022/04/12 04:59:23;;;;;;;62.10;24.73;;;4.00;99.90;;;;;;5064958;28;20099;-76
2022/04/12 05:01:49;;;;;;;53.55;24.48;;;4.10;99.90;;;;;;5047142;28;20067;-75
2022/04/12 05:04:15;;;;;;;65.30;25.20;;;4.10;99.90;;;;;;5075326;28;20060;-75
2022/04/12 05:06:40;;;;;;;58.33;24.27;;;4.20;99.90;;;;;;5074892;28;20127;-76
2022/04/12 05:09:06;;;;;;;63.80;24.20;;;4.30;99.90;;;;;;5074702;28;20111;-77
2022/04/12 05:11:32;;;;;;;57.22;23.90;;;4.30;99.90;;;;;;5076173;28;20028;-74
2022/04/12 05:13:57;;;;;;;44.80;18.33;;;4.50;99.90;;;;;;5073626;28;20440;-76
2022/04/12 05:16:23;;;;;;;37.30;19.40;;;4.60;99.90;;;;;;5074591;28;20390;-75
2022/04/12 05:18:51;;;;;;;44.70;21.70;;;4.70;99.90;;;;;;5075391;28;20363;-76
2022/04/12 05:21:18;;;;;;;57.13;27.60;;;4.70;99.90;;;;;;5075444;28;20067;-76
2022/04/12 05:23:44;;;;;;;52.83;25.38;;;4.80;99.90;;;;;;5075288;28;20028;-75
2022/04/12 05:26:10;;;;;;;50.65;26.17;;;4.80;99.90;;;;;;5075161;28;20032;-76
2022/04/12 05:28:36;;;;;;;67.78;30.30;;;4.90;99.90;;;;;;5075708;28;20109;-74
2022/04/12 05:31:02;;;;;;;71.72;32.60;;;5.00;99.90;;;;;;5075568;28;20028;-76
2022/04/12 05:33:27;;;;;;;52.30;24.45;;;5.10;99.90;;;;;;5075972;28;20089;-78
2022/04/12 05:35:53;;;;;;;45.10;22.88;;;5.10;99.90;;;;;;5057672;28;20024;-77
2022/04/12 05:38:19;;;;;;;33.50;14.70;;;5.10;99.90;;;;;;5057480;28;20025;-74
2022/04/12 05:40:45;;;;;;;29.33;13.15;;;5.10;99.90;;;;;;5057822;28;20031;-75
2022/04/12 05:43:11;;;;;;;26.42;12.70;;;5.10;99.90;;;;;;5057622;28;20025;-75
2022/04/12 05:45:36;;;;;;;21.80;10.73;;;5.20;99.90;;;;;;5075238;28;20029;-76
2022/04/12 05:48:02;;;;;;;26.00;12.77;;;5.40;99.90;;;;;;5074868;28;20430;-77
2022/04/12 05:50:28;;;;;;;57.85;22.80;;;5.40;99.90;;;;;;5075073;28;20052;-76
2022/04/12 05:52:55;;;;;;;52.88;24.13;;;5.50;99.90;;;;;;5057214;28;20039;-73
2022/04/12 05:55:22;;;;;;;36.38;16.80;;;5.60;99.90;;;;;;5057161;28;20032;-76
2022/04/12 05:57:49;;;;;;;40.85;18.08;;;5.80;99.90;;;;;;5057031;28;20029;-76
2022/04/12 06:00:15;;;;;;;24.17;14.18;;;5.90;99.90;;;;;;5057119;28;20121;-77
2022/04/12 06:02:41;;;;;;;38.80;18.88;;;6.10;99.90;;;;;;5074546;28;20035;-75
2022/04/12 06:05:07;;;;;;;39.70;20.85;;;6.10;99.90;;;;;;5074587;28;20033;-75
2022/04/12 06:07:34;;;;;;;41.65;18.10;;;6.30;99.90;;;;;;5074876;28;20025;-75
2022/04/12 06:10:01;;;;;;;37.28;17.77;;;6.40;99.90;;;;;;5056933;28;20491;-74
2022/04/12 06:12:27;;;;;;;25.42;12.85;;;6.60;99.90;;;;;;5074428;28;20466;-76
2022/04/12 06:14:54;;;;;;;33.17;16.73;;;6.60;99.90;;;;;;5074850;28;20104;-76
2022/04/12 06:17:20;;;;;;;34.83;16.52;;;6.90;99.90;;;;;;5074477;28;20035;-74
2022/04/12 06:19:46;;;;;;;38.58;18.75;;;7.00;99.90;;;;;;5074355;28;20134;-75
2022/04/12 06:22:11;;;;;;;53.55;25.77;;;7.20;99.90;;;;;;5074344;28;20169;-76
2022/04/12 06:24:38;;;;;;;53.15;23.67;;;7.30;99.90;;;;;;5074730;28;20103;-75
2022/04/12 06:27:05;;;;;;;51.50;20.45;;;7.60;99.90;;;;;;5074065;28;20379;-75
2022/04/12 06:29:30;;;;;;;39.13;18.77;;;7.80;99.90;;;;;;5074476;28;20025;-74
2022/04/12 06:31:56;;;;;;;45.20;19.85;;;7.90;99.90;;;;;;5074274;28;20546;-74
2022/04/12 06:34:22;;;;;;;41.55;20.83;;;8.10;99.70;;;;;;5074612;28;20053;-74
2022/04/12 06:36:47;;;;;;;45.92;20.10;;;8.20;99.20;;;;;;5074066;28;20441;-76
2022/04/12 06:39:13;;;;;;;50.80;24.27;;;8.50;98.90;;;;;;5074488;28;20025;-77
2022/04/12 06:41:39;;;;;;;33.55;16.42;;;8.70;97.50;;;;;;5074190;28;20029;-75
2022/04/12 06:44:06;;;;;;;29.67;15.18;;;8.90;95.30;;;;;;5073952;28;20034;-74
2022/04/12 06:46:32;;;;;;;29.77;16.52;;;9.00;93.00;;;;;;5074456;28;20084;-76
2022/04/12 06:48:58;;;;;;;41.58;20.40;;;9.20;94.90;;;;;;5056056;28;20056;-73
2022/04/12 06:51:23;;;;;;;35.58;18.38;;;9.40;94.50;;;;;;5074138;28;20027;-75
2022/04/12 06:53:50;;;;;;;57.33;27.45;;;9.60;93.70;;;;;;5073823;28;20032;-76
2022/04/12 06:56:16;;;;;;;45.38;20.80;;;9.90;93.60;;;;;;5073902;28;20067;-75
2022/04/12 06:58:43;;;;;;;45.15;19.55;;;10.10;90.40;;;;;;5073938;28;20099;-76
2022/04/12 07:01:09;;;;;;;40.17;20.95;;;10.20;89.60;;;;;;5073839;28;20470;-76
2022/04/12 07:03:35;;;;;;;44.70;21.25;;;10.40;91.50;;;;;;5056270;28;20029;-74
2022/04/12 07:06:01;;;;;;;42.30;23.17;;;10.50;89.40;;;;;;5055993;28;20048;-75
2022/04/12 07:08:26;;;;;;;53.03;26.77;;;10.70;88.80;;;;;;5073491;28;20471;-76
2022/04/12 07:10:52;;;;;;;44.63;26.05;;;10.90;91.40;;;;;;5056279;28;20083;-75
2022/04/12 07:13:19;;;;;;;51.30;29.63;;;11.00;90.50;;;;;;5055898;28;20490;-75
2022/04/12 07:15:46;;;;;;;45.45;22.40;;;11.20;89.50;;;;;;5073716;28;20035;-75
2022/04/12 07:18:12;;;;;;;57.00;27.20;;;11.50;85.70;;;;;;5073591;28;20028;-75
2022/04/12 07:20:38;;;;;;;48.00;25.55;;;11.60;83.90;;;;;;5055936;28;20028;-76
2022/04/12 07:23:03;;;;;;;37.55;20.58;;;11.80;83.20;;;;;;5073987;28;20039;-75
2022/04/12 07:25:29;;;;;;;41.35;22.75;;;12.00;79.60;;;;;;5073729;28;20027;-76
2022/04/12 07:27:55;;;;;;;59.88;30.63;;;12.10;79.80;;;;;;5073583;28;20368;-74
2022/04/12 07:30:20;;;;;;;58.13;27.52;;;12.30;82.90;;;;;;5073731;28;20043;-76
2022/04/12 07:32:46;;;;;;;48.25;27.10;;;12.40;78.00;;;;;;5073288;28;20025;-74
2022/04/12 07:35:12;;;;;;;40.90;22.25;;;12.50;80.70;;;;;;5073256;28;20029;-74
2022/04/12 07:37:42;;;;;;;42.00;22.42;;;12.80;78.50;;;;;;5055368;28;20029;-74
2022/04/12 07:40:09;;;;;;;42.78;24.42;;;13.20;76.90;;;;;;5073295;28;20479;-76
2022/04/12 07:42:34;;;;;;;41.08;22.95;;;13.30;75.80;;;;;;5062144;28;20032;-76
2022/04/12 07:45:00;;;;;;;31.55;16.50;;;13.70;77.00;;;;;;5063840;28;20028;-75
2022/04/12 07:47:26;;;;;;;26.10;13.93;;;13.90;73.70;;;;;;5062188;28;20036;-77
2022/04/12 07:49:51;;;;;;;30.90;16.98;;;14.00;67.00;;;;;;5060092;28;20033;-75
2022/04/12 07:52:17;;;;;;;26.58;14.60;;;14.40;69.30;;;;;;5053045;28;20047;-75
2022/04/12 07:54:43;;;;;;;29.33;15.85;;;14.50;69.40;;;;;;5053726;28;20108;-75
2022/04/12 07:57:08;;;;;;;29.10;13.70;;;14.80;66.00;;;;;;5053500;28;20371;-77
2022/04/12 07:59:34;;;;;;;34.22;18.48;;;15.10;65.20;;;;;;5053273;28;20099;-75
2022/04/12 08:02:00;;;;;;;34.45;17.50;;;15.30;67.00;;;;;;5053356;28;20136;-75
2022/04/12 08:04:26;;;;;;;31.70;15.32;;;15.40;66.80;;;;;;5053422;28;20036;-75
2022/04/12 08:06:51;;;;;;;35.03;18.70;;;15.80;62.90;;;;;;5053305;28;20025;-75
2022/04/12 08:09:17;;;;;;;31.38;16.33;;;15.90;62.00;;;;;;5053264;28;20479;-75
2022/04/12 08:11:43;;;;;;;24.83;12.02;;;16.20;62.10;;;;;;5053533;28;20096;-75
2022/04/12 08:14:08;;;;;;;18.40;9.40;;;16.30;58.10;;;;;;5052860;28;20025;-74
2022/04/12 08:16:34;;;;;;;25.52;10.27;;;16.40;56.90;;;;;;5053243;28;20499;-73
2022/04/12 08:19:00;;;;;;;27.20;11.98;;;16.80;57.80;;;;;;5034075;28;20029;-75
2022/04/12 08:21:39;;;;;;;16.67;7.90;;;16.80;56.20;;;;;;5052064;28;20036;-76
2022/04/12 08:24:07;;;;;;;17.08;8.65;;;16.80;55.10;;;;;;5034531;28;20079;-76
2022/04/12 08:26:33;;;;;;;17.73;7.70;;;17.00;56.20;;;;;;5052181;28;20383;-75
2022/04/12 08:28:59;;;;;;;15.55;8.75;;;16.90;53.80;;;;;;5052665;28;20025;-74
2022/04/12 08:31:24;;;;;;;20.40;10.45;;;17.10;52.70;;;;;;5052496;28;20021;-73
2022/04/12 08:33:51;;;;;;;13.80;7.20;;;17.30;53.70;;;;;;5052495;28;20093;-74
2022/04/12 08:36:20;;;;;;;12.07;7.07;;;17.50;50.90;;;;;;5035147;28;20041;-74
2022/04/12 08:38:46;;;;;;;9.70;6.03;;;17.30;50.30;;;;;;5035207;28;20028;-75
2022/04/12 08:41:14;;;;;;;12.57;6.68;;;17.80;50.60;;;;;;5053416;28;20063;-76
2022/04/12 08:43:41;;;;;;;6.88;5.10;;;18.30;51.20;;;;;;5055228;28;20029;-73
2022/04/12 08:46:08;;;;;;;12.80;5.72;;;18.00;47.90;;;;;;5038637;28;20437;-74
2022/04/12 08:48:34;;;;;;;7.38;4.20;;;18.10;50.10;;;;;;5056648;28;20033;-74
2022/04/12 08:51:01;;;;;;;8.98;5.13;;;18.40;45.80;;;;;;5056424;28;20021;-75
2022/04/12 08:53:29;;;;;;;10.25;5.35;;;18.70;46.70;;;;;;5055943;28;20032;-75
2022/04/12 08:55:55;;;;;;;9.93;4.10;;;18.60;45.90;;;;;;5056193;28;20021;-75
2022/04/12 08:58:21;;;;;;;10.45;5.22;;;18.90;45.80;;;;;;5047677;28;20048;-75
2022/04/12 09:00:47;;;;;;;10.15;5.97;;;18.80;44.10;;;;;;5076452;28;20166;-74
2022/04/12 09:03:14;;;;;;;9.27;3.90;;;18.90;44.50;;;;;;5076242;28;20475;-74
2022/04/12 09:05:40;;;;;;;7.40;4.63;;;19.00;42.10;;;;;;5076255;28;20052;-74
2022/04/12 09:08:31;;;;;;;7.97;4.03;;;19.50;42.80;;;;;;5074720;28;20133;-75
2022/04/12 09:11:08;;;;;;;8.75;3.75;;;19.50;44.90;;;;;;5076107;28;20485;-76
2022/04/12 09:13:35;;;;;;;5.60;2.95;;;19.70;42.90;;;;;;5076383;28;20031;-75
2022/04/12 09:16:01;;;;;;;4.93;2.80;;;19.60;41.70;;;;;;5075896;28;20035;-73
2022/04/12 09:18:36;;;;;;;10.82;4.03;;;19.40;40.60;;;;;;5076131;28;20028;-74
2022/04/12 09:21:22;;;;;;;9.48;4.22;;;19.90;41.90;;;;;;5076054;28;20032;-74
2022/04/12 09:23:52;;;;;;;10.15;4.53;;;20.30;42.70;;;;;;5075905;28;20024;-74
2022/04/12 09:26:29;;;;;;;11.43;4.82;;;20.30;42.30;;;;;;5075700;28;20032;-75
2022/04/12 09:29:02;;;;;;;5.78;3.17;;;20.60;39.70;;;;;;5075352;28;20056;-73
2022/04/12 09:31:28;;;;;;;5.55;3.17;;;20.50;38.90;;;;;;5075784;28;20025;-76
2022/04/12 09:33:54;;;;;;;4.93;2.60;;;20.50;38.60;;;;;;5074517;28;20028;-74
2022/04/12 09:36:20;;;;;;;9.95;5.22;;;20.50;39.60;;;;;;5075475;28;20107;-75
2022/04/12 09:38:54;;;;;;;4.03;2.67;;;20.40;36.80;;;;;;5075315;28;20064;-75
2022/04/12 09:41:24;;;;;;;5.28;2.40;;;20.60;37.60;;;;;;5075476;28;20029;-74
2022/04/12 09:44:08;;;;;;;6.53;2.95;;;20.90;35.80;;;;;;5075348;28;20025;-75
2022/04/12 09:46:38;;;;;;;6.22;3.22;;;21.20;37.70;;;;;;5075193;28;20039;-76
2022/04/12 09:49:05;;;;;;;3.33;2.15;;;21.10;34.20;;;;;;5075018;28;20426;-73
2022/04/12 09:51:32;;;;;;;8.52;2.50;;;21.00;35.50;;;;;;5075450;28;20020;-75
2022/04/12 09:53:58;;;;;;;6.00;3.70;;;20.80;35.70;;;;;;5075178;28;20020;-74
2022/04/12 09:56:31;;;;;;;3.83;2.40;;;21.00;35.60;;;;;;5074786;28;20025;-75
2022/04/12 09:58:59;;;;;;;17.38;9.45;;;20.80;34.60;;;;;;5063606;28;20049;-74
2022/04/12 10:01:26;;;;;;;5.93;3.45;;;20.90;38.80;;;;;;5055514;28;20029;-75
2022/04/12 10:03:53;;;;;;;3.67;2.70;;;21.20;37.70;;;;;;5055018;28;20056;-74
2022/04/12 10:06:21;;;;;;;4.72;2.85;;;21.20;34.20;;;;;;5054649;28;20029;-75
2022/04/12 10:08:55;;;;;;;4.28;2.15;;;21.30;33.30;;;;;;5037216;28;20074;-75
2022/04/12 10:11:22;;;;;;;8.80;3.45;;;21.10;35.50;;;;;;5054396;28;20068;-75
2022/04/12 10:13:49;;;;;;;7.85;5.03;;;21.20;38.70;;;;;;5054867;28;20025;-74
2022/04/12 10:16:20;;;;;;;14.82;8.68;;;22.10;37.30;;;;;;5054909;28;20056;-75
2022/04/12 10:18:59;;;;;;;19.67;10.73;;;22.00;33.20;;;;;;5054900;28;20021;-74
2022/04/12 10:21:26;;;;;;;4.40;2.90;;;22.10;37.50;;;;;;5054450;28;20525;-75
2022/04/12 10:23:56;;;;;;;12.30;4.47;;;21.80;34.30;;;;;;5035407;28;20025;-73
2022/04/12 10:26:24;;;;;;;27.38;7.22;;;22.10;33.70;;;;;;5035157;28;20040;-76
2022/04/12 10:28:55;;;;;;;32.72;10.40;;;22.00;35.40;;;;;;5054024;28;20043;-76
2022/04/12 10:31:26;;;;;;;5.63;3.70;;;22.00;34.30;;;;;;5054316;28;20029;-75
2022/04/12 10:34:14;;;;;;;4.43;3.30;;;22.10;36.00;;;;;;5054183;28;20021;-74
2022/04/12 10:36:55;;;;;;;91.95;23.77;;;21.90;33.70;;;;;;5053278;28;20040;-75
2022/04/12 10:39:29;;;;;;;112.43;28.10;;;22.20;37.70;;;;;;5035488;28;20033;-74
2022/04/12 10:41:56;;;;;;;91.85;27.10;;;22.30;35.60;;;;;;5053762;28;20025;-78
2022/04/12 10:44:23;;;;;;;19.95;7.00;;;21.80;35.60;;;;;;5036055;28;20056;-76
2022/04/12 10:46:53;;;;;;;7.55;3.03;;;21.60;34.50;;;;;;5053652;28;20082;-75
2022/04/12 10:49:21;;;;;;;10.43;3.92;;;21.70;33.70;;;;;;5053866;28;20036;-74
2022/04/12 10:52:00;;;;;;;8.27;3.45;;;21.80;34.50;;;;;;5036354;28;20033;-75
2022/04/12 10:54:36;;;;;;;6.75;3.45;;;21.50;34.20;;;;;;5053942;28;20044;-77
2022/04/12 10:57:20;;;;;;;17.40;5.68;;;21.70;33.30;;;;;;5053593;28;20040;-77
2022/04/12 11:00:46;;;;;;;7.10;2.70;;;22.10;36.30;;;;;;5070600;28;20426;-77
2022/04/12 11:03:12;;;;;;;6.95;3.53;;;22.30;33.20;;;;;;5068886;28;20032;-76
2022/04/12 11:05:45;;;;;;;6.47;3.05;;;21.80;33.30;;;;;;5069452;28;20503;-75
2022/04/12 11:08:13;;;;;;;10.57;4.95;;;22.00;33.90;;;;;;5070058;28;20056;-76
2022/04/12 11:10:59;;;;;;;9.63;3.05;;;22.00;33.80;;;;;;5050636;28;20025;-74
2022/04/12 11:13:28;;;;;;;7.50;2.67;;;21.90;35.10;;;;;;5048610;28;20037;-76
2022/04/12 11:15:57;;;;;;;4.47;2.75;;;22.60;34.50;;;;;;5048750;28;20041;-77
2022/04/12 11:18:22;;;;;;;13.02;2.90;;;22.70;32.30;;;;;;5049231;28;20389;-75
2022/04/12 11:21:02;;;;;;;12.10;5.22;;;22.70;34.80;;;;;;5049225;28;20498;-74
2022/04/12 11:24:04;;;;;;;8.15;4.45;;;22.90;33.90;;;;;;5048626;28;20017;-76
2022/04/12 11:26:44;;;;;;;6.20;3.03;;;22.40;35.40;;;;;;5049181;28;20065;-77
2022/04/12 11:29:12;;;;;;;7.05;2.92;;;23.00;33.50;;;;;;5049102;28;20384;-75
2022/04/12 11:31:44;;;;;;;5.95;3.20;;;22.90;33.00;;;;;;5049105;28;20029;-74
2022/04/12 11:34:11;;;;;;;11.98;5.10;;;;;;;;;;5047932;28;20411;-72
2022/04/12 11:36:44;;;;;;;5.40;3.08;;;23.50;33.90;;;;;;5050545;28;20044;-76
2022/04/12 11:39:10;;;;;;;9.60;3.10;;;23.40;33.90;;;;;;5050353;28;20029;-74
2022/04/12 11:41:36;;;;;;;7.50;3.17;;;23.30;32.90;;;;;;5050026;28;20025;-75
2022/04/12 11:44:04;;;;;;;6.15;3.53;;;23.60;34.30;;;;;;5050604;28;20033;-74
2022/04/12 11:46:31;;;;;;;9.35;4.15;;;23.70;32.50;;;;;;5050380;28;20025;-75
2022/04/12 11:49:10;;;;;;;3.65;2.72;;;23.60;36.40;;;;;;5050201;28;20060;-74
2022/04/12 11:51:38;;;;;;;4.68;3.30;;;23.60;35.50;;;;;;5050233;28;20096;-78
2022/04/12 11:54:37;;;;;;;4.53;3.05;;;23.80;31.70;;;;;;5050302;28;20452;-79
2022/04/12 11:57:07;;;;;;;8.65;3.45;;;23.90;30.40;;;;;;5049955;28;20472;-75
2022/04/12 11:59:43;;;;;;;3.75;2.53;;;23.40;31.00;;;;;;5048365;28;20087;-76
2022/04/12 12:02:09;;;;;;;6.35;3.03;;;23.40;30.80;;;;;;5049622;28;20022;-76
2022/04/12 12:04:36;;;;;;;5.60;3.30;;;23.60;32.40;;;;;;5050072;28;20052;-77
2022/04/12 12:07:02;;;;;;;6.25;3.15;;;;;;;;;;5049944;28;20079;-75
2022/04/12 12:09:28;;;;;;;6.38;3.30;;;23.80;30.60;;;;;;5049900;28;20021;-76
2022/04/12 12:12:02;;;;;;;3.53;3.00;;;23.50;30.70;;;;;;5037464;28;20068;-76
2022/04/12 12:14:28;;;;;;;5.07;3.55;;;23.30;32.30;;;;;;5036468;28;20380;-75
2022/04/12 12:17:02;;;;;;;13.68;7.63;;;23.60;32.80;;;;;;5036034;28;20022;-75
2022/04/12 12:19:29;;;;;;;4.25;3.13;;;;;;;;;;5036361;28;20052;-76
2022/04/12 12:21:55;;;;;;;4.90;3.97;;;24.10;31.30;;;;;;5036448;28;20052;-75
2022/04/12 12:24:21;;;;;;;7.10;4.60;;;23.60;31.20;;;;;;5036246;28;20022;-76
2022/04/12 12:26:53;;;;;;;7.35;4.45;;;23.80;30.10;;;;;;5036325;28;20022;-75
2022/04/12 12:29:21;;;;;;;4.63;3.13;;;23.60;29.40;;;;;;5036202;28;20116;-75
2022/04/12 12:31:47;;;;;;;5.35;2.65;;;24.00;31.50;;;;;;5036082;28;20030;-75
2022/04/12 12:34:46;;;;;;;6.22;2.67;;;23.60;30.60;;;;;;5036400;28;20372;-76
2022/04/12 12:37:11;;;;;;;5.78;3.40;;;23.90;28.70;;;;;;4994287;28;20117;-75
2022/04/12 12:39:42;;;;;;;5.22;2.83;;;23.80;28.70;;;;;;4994377;28;20573;-76
2022/04/12 12:42:08;;;;;;;6.38;2.97;;;24.20;30.10;;;;;;4994299;28;20037;-75
2022/04/12 12:44:35;;;;;;;3.60;3.13;;;;;;;;;;4994372;28;20121;-77